Time;durP1;ratioP1;P1;durP2;ratioP2;P2;SDS_P1;SDS_P2;PMS_P1;PMS_P2;Temp;Humidity;BMP_temperature;BMP_pressure;BME280_temperature;BME280_humidity;BME280_pressure;Samples;Min_cycle;Max_cycle;Signal;HPM_P1;HPM_P2
2021/10/24 00:00:19;;;;;;;;;;;9.20;99.90;;;;;;5037119;28;20380;-68
2021/10/24 00:02:46;;;;;;;;;;;9.20;99.90;;;;;;5054013;28;19920;-68
2021/10/24 00:05:12;;;;;;;;;;;9.20;99.90;;;;;;5054399;28;19920;-68
2021/10/24 00:07:37;;;;;;;;;;;9.10;99.90;;;;;;5054297;28;19928;-68
2021/10/24 00:10:03;;;;;;;;;;;9.10;99.90;;;;;;5053951;28;19916;-68
2021/10/24 00:12:29;;;;;;;;;;;9.10;99.90;;;;;;5053866;28;19916;-68
2021/10/24 00:14:54;;;;;;;;;;;9.00;99.90;;;;;;5053942;28;19916;-68
2021/10/24 00:17:20;;;;;;;;;;;8.90;99.90;;;;;;5053917;28;19955;-68
2021/10/24 00:19:45;;;;;;;;;;;8.90;99.90;;;;;;5053870;28;19921;-68
2021/10/24 00:22:11;;;;;;;;;;;8.80;99.90;;;;;;5053707;28;19924;-68
2021/10/24 00:24:36;;;;;;;;;;;8.70;99.90;;;;;;5053879;28;19924;-68
2021/10/24 00:27:02;;;;;;;;;;;8.60;99.90;;;;;;5053735;28;19991;-68
2021/10/24 00:29:27;;;;;;;;;;;8.50;99.90;;;;;;5053976;28;20345;-68
2021/10/24 00:31:53;;;;;;;;;;;8.40;99.90;;;;;;5053639;28;19917;-68
2021/10/24 00:34:18;;;;;;;;;;;8.30;99.90;;;;;;5053973;28;19916;-68
2021/10/24 00:36:44;;;;;;;;;;;8.20;99.90;;;;;;5053434;28;20010;-68
2021/10/24 00:39:09;;;;;;;;;;;8.20;99.90;;;;;;5037012;28;19936;-68
2021/10/24 00:41:35;;;;;;;;;;;8.10;99.90;;;;;;5053780;28;20018;-68
2021/10/24 00:44:16;;;;;;;;;;;8.10;99.90;;;;;;5053665;28;19925;-68
2021/10/24 00:46:42;;;;;;;;;;;8.10;99.90;;;;;;5053549;28;20358;-68
2021/10/24 00:49:07;;;;;;;;;;;8.00;99.90;;;;;;5071590;28;19966;-68
2021/10/24 00:51:33;;;;;;;;;;;8.00;99.90;;;;;;5053458;28;20297;-68
2021/10/24 00:53:58;;;;;;;;;;;7.90;99.90;;;;;;5053631;28;20598;-68
2021/10/24 00:56:24;;;;;;;;;;;7.90;99.90;;;;;;5056347;28;19928;-68
2021/10/24 00:58:50;;;;;;;;;;;7.90;99.90;;;;;;5057284;28;19924;-68
2021/10/24 01:01:15;;;;;;;;;;;7.90;99.90;;;;;;5075396;28;19920;-68
2021/10/24 01:03:41;;;;;;;;;;;7.80;99.90;;;;;;5057312;28;20354;-68
2021/10/24 01:06:06;;;;;;;;;;;7.80;99.90;;;;;;5057313;28;19923;-68
2021/10/24 01:08:34;;;;;;;;;;;7.80;99.90;;;;;;5075334;28;19977;-68
2021/10/24 01:10:59;;;;;;;;;;;7.80;99.90;;;;;;5057170;28;20406;-68
2021/10/24 01:13:25;;;;;;;;;;;7.80;99.90;;;;;;5057062;28;19916;-68
2021/10/24 01:15:51;;;;;;;;;;;7.80;99.90;;;;;;5057126;28;20258;-68
2021/10/24 01:18:16;;;;;;;;;;;7.70;99.90;;;;;;5075156;28;19924;-68
2021/10/24 01:20:42;;;;;;;;;;;7.70;99.90;;;;;;5057161;28;20412;-68
2021/10/24 01:23:09;;;;;;;;;;;7.70;99.90;;;;;;5056982;28;19970;-68
2021/10/24 01:25:34;;;;;;;;;;;7.70;99.90;;;;;;5056952;28;19928;-68
2021/10/24 01:28:00;;;;;;;;;;;7.60;99.90;;;;;;5057142;28;20518;-68
2021/10/24 01:30:25;;;;;;;;;;;7.60;99.90;;;;;;5057232;28;19920;-68
2021/10/24 01:32:51;;;;;;;;;;;7.60;99.90;;;;;;5057095;28;20377;-68
2021/10/24 01:35:17;;;;;;;;;;;7.60;99.90;;;;;;5074965;28;20354;-68
2021/10/24 01:37:43;;;;;;;;;;;7.60;99.90;;;;;;5074491;28;19927;-68
2021/10/24 01:40:13;;;;;;;;;;;7.60;99.90;;;;;;5056648;28;19956;-68
2021/10/24 01:42:49;;;;;;;;;;;7.50;99.90;;;;;;5056993;28;20250;-68
2021/10/24 01:45:15;;;;;;;;;;;7.50;99.90;;;;;;5074714;28;19920;-68
2021/10/24 01:47:41;;;;;;;;;;;7.50;99.90;;;;;;5056511;28;19966;-68
2021/10/24 01:50:06;;;;;;;;;;;7.50;99.90;;;;;;5074543;28;20274;-68
2021/10/24 01:52:32;;;;;;;;;;;7.50;99.90;;;;;;5056314;28;19947;-68
2021/10/24 01:54:57;;;;;;;;;;;7.40;99.90;;;;;;5056541;28;19927;-68
2021/10/24 01:57:23;;;;;;;;;;;7.40;99.90;;;;;;5056443;28;19920;-68
2021/10/24 01:59:48;;;;;;;;;;;7.30;99.90;;;;;;5039497;28;19924;-68
2021/10/24 02:02:14;;;;;;;;;;;7.30;99.90;;;;;;5056270;28;20337;-68
2021/10/24 02:04:39;;;;;;;;;;;7.20;99.90;;;;;;5056390;28;19927;-68
2021/10/24 02:07:05;;;;;;;;;;;7.20;99.90;;;;;;5056240;28;19962;-68
2021/10/24 02:09:30;;;;;;;;;;;7.10;99.90;;;;;;5056092;28;19967;-68
2021/10/24 02:11:55;;;;;;;;;;;7.10;99.90;;;;;;5073345;28;19920;-68
2021/10/24 02:14:21;;;;;;;;;;;7.00;99.90;;;;;;5056073;28;19922;-68
2021/10/24 02:16:46;;;;;;;;;;;7.00;99.90;;;;;;5073941;28;19962;-68
2021/10/24 02:19:12;;;;;;;;;;;6.90;99.90;;;;;;5055912;28;19962;-68
2021/10/24 02:21:37;;;;;;;;;;;6.90;99.90;;;;;;5056046;28;20324;-68
2021/10/24 02:24:03;;;;;;;;;;;6.90;99.90;;;;;;5073812;28;19959;-68
2021/10/24 02:26:28;;;;;;;;;;;6.80;99.90;;;;;;5056132;28;20011;-68
2021/10/24 02:28:54;;;;;;;;;;;6.80;99.90;;;;;;5055954;28;19923;-68
2021/10/24 02:31:19;;;;;;;;;;;6.70;99.90;;;;;;5039149;28;19920;-68
2021/10/24 02:33:45;;;;;;;;;;;6.70;99.90;;;;;;5055978;28;20442;-68
2021/10/24 02:36:10;;;;;;;;;;;6.70;99.90;;;;;;5055916;28;20011;-68
2021/10/24 02:38:36;;;;;;;;;;;6.60;99.90;;;;;;5055232;28;19928;-68
2021/10/24 02:41:01;;;;;;;;;;;6.60;99.90;;;;;;5073492;28;19924;-68
2021/10/24 02:43:27;;;;;;;;;;;6.50;99.90;;;;;;5055536;28;19924;-68
2021/10/24 02:45:53;;;;;;;;;;;6.50;99.90;;;;;;5039208;28;20392;-68
2021/10/24 02:48:18;;;;;;;;;;;6.50;99.90;;;;;;5055676;28;19920;-68
2021/10/24 02:50:44;;;;;;;;;;;6.50;99.90;;;;;;5073266;28;19924;-68
2021/10/24 02:53:10;;;;;;;;;;;6.40;99.90;;;;;;5055269;28;19920;-68
2021/10/24 02:55:35;;;;;;;;;;;6.50;99.90;;;;;;5073214;28;19924;-68
2021/10/24 02:58:01;;;;;;;;;;;6.40;99.90;;;;;;5055322;28;20409;-68
2021/10/24 03:00:26;;;;;;;;;;;6.40;99.90;;;;;;5073023;28;19920;-68
2021/10/24 03:02:52;;;;;;;;;;;6.30;99.90;;;;;;5055153;28;19930;-68
2021/10/24 03:05:17;;;;;;;;;;;6.30;99.90;;;;;;5073104;28;19919;-68
2021/10/24 03:07:43;;;;;;;;;;;6.30;99.90;;;;;;5055137;28;19970;-68
2021/10/24 03:10:08;;;;;;;;;;;6.30;99.90;;;;;;5055494;28;19916;-68
2021/10/24 03:12:34;;;;;;;;;;;6.20;99.90;;;;;;5054966;28;19916;-68
2021/10/24 03:15:00;;;;;;;;;;;6.20;99.90;;;;;;5072805;28;19924;-68
2021/10/24 03:17:25;;;;;;;;;;;6.20;99.90;;;;;;5054875;28;20274;-68
2021/10/24 03:19:51;;;;;;;;;;;6.20;99.90;;;;;;5054526;28;19928;-68
2021/10/24 03:22:17;;;;;;;;;;;6.10;99.90;;;;;;5054856;28;19969;-68
2021/10/24 03:24:42;;;;;;;;;;;6.10;99.90;;;;;;5072623;28;19916;-68
2021/10/24 03:27:08;;;;;;;;;;;6.10;99.90;;;;;;5054720;28;20003;-68
2021/10/24 03:29:33;;;;;;;;;;;6.00;99.90;;;;;;5054482;28;19916;-68
2021/10/24 03:31:59;;;;;;;;;;;6.00;99.90;;;;;;5054853;28;20426;-68
2021/10/24 03:34:24;;;;;;;;;;;6.00;99.90;;;;;;5054630;28;19927;-68
2021/10/24 03:36:50;;;;;;;;;;;6.00;99.90;;;;;;5054601;28;20499;-68
2021/10/24 03:39:16;;;;;;;;;;;5.90;99.90;;;;;;5070944;28;19921;-68
2021/10/24 03:41:41;;;;;;;;;;;5.90;99.90;;;;;;5037790;28;19969;-68
2021/10/24 03:44:07;;;;;;;;;;;5.80;99.90;;;;;;5054372;28;19963;-68
2021/10/24 03:46:33;;;;;;;;;;;5.80;99.90;;;;;;5054534;28;20364;-68
2021/10/24 03:48:59;;;;;;;;;;;5.80;99.90;;;;;;5054432;28;20502;-68
2021/10/24 03:51:24;;;;;;;;;;;5.70;99.90;;;;;;5054110;28;20015;-68
2021/10/24 03:53:50;;;;;;;;;;;5.70;99.90;;;;;;5054565;28;19920;-68
2021/10/24 03:56:15;;;;;;;;;;;5.70;99.90;;;;;;5054358;28;19923;-68
2021/10/24 03:58:42;;;;;;;;;;;5.60;99.90;;;;;;5072193;28;19922;-68
2021/10/24 04:01:07;;;;;;;;;;;5.60;99.90;;;;;;5054178;28;19967;-68
2021/10/24 04:03:34;;;;;;;;;;;5.60;99.90;;;;;;5054344;28;19963;-68
2021/10/24 04:06:00;;;;;;;;;;;5.50;99.90;;;;;;5053973;28;19916;-68
2021/10/24 04:08:25;;;;;;;;;;;5.50;99.90;;;;;;5054314;28;19965;-68
2021/10/24 04:10:51;;;;;;;;;;;5.50;99.90;;;;;;5053895;28;19967;-68
2021/10/24 04:13:16;;;;;;;;;;;5.40;99.90;;;;;;5054332;28;19920;-68
2021/10/24 04:15:42;;;;;;;;;;;5.40;99.90;;;;;;5071907;28;19958;-68
2021/10/24 04:18:07;;;;;;;;;;;5.40;99.90;;;;;;5054134;28;20330;-68
2021/10/24 04:20:33;;;;;;;;;;;5.40;99.90;;;;;;5053720;28;19920;-68
2021/10/24 04:22:58;;;;;;;;;;;5.40;99.90;;;;;;5054262;28;19923;-68
2021/10/24 04:25:27;;;;;;;;;;;5.30;99.90;;;;;;5054150;28;19974;-68
2021/10/24 04:27:53;;;;;;;;;;;5.30;99.90;;;;;;5053774;28;19970;-68
2021/10/24 04:30:19;;;;;;;;;;;5.30;99.90;;;;;;5054797;28;19927;-68
2021/10/24 04:32:45;;;;;;;;;;;5.30;99.90;;;;;;5058188;28;20010;-68
2021/10/24 04:35:11;;;;;;;;;;;5.30;99.90;;;;;;5075846;28;19969;-68
2021/10/24 04:37:36;;;;;;;;;;;5.20;99.90;;;;;;5057829;28;19927;-68
2021/10/24 04:40:03;;;;;;;;;;;5.20;99.90;;;;;;5057766;28;19924;-68
2021/10/24 04:42:29;;;;;;;;;;;5.30;99.90;;;;;;5057612;28;20411;-68
2021/10/24 04:44:55;;;;;;;;;;;5.20;99.90;;;;;;5057733;28;19916;-68
2021/10/24 04:47:20;;;;;;;;;;;5.20;99.90;;;;;;5057954;28;20340;-68
2021/10/24 04:49:46;;;;;;;;;;;5.20;99.90;;;;;;5057480;28;19922;-68
2021/10/24 04:52:11;;;;;;;;;;;5.20;99.90;;;;;;5057801;28;19938;-68
2021/10/24 04:54:37;;;;;;;;;;;5.10;99.90;;;;;;5057559;28;19974;-68
2021/10/24 04:57:03;;;;;;;;;;;5.10;99.90;;;;;;5057403;28;19916;-68
2021/10/24 04:59:28;;;;;;;;;;;5.10;99.90;;;;;;5057430;28;20304;-68
2021/10/24 05:01:54;;;;;;;;;;;5.00;99.90;;;;;;5057389;28;20018;-68
2021/10/24 05:04:19;;;;;;;;;;;5.00;99.90;;;;;;5075622;28;19982;-68
2021/10/24 05:06:45;;;;;;;;;;;5.00;99.90;;;;;;5057337;28;19924;-68
2021/10/24 05:09:11;;;;;;;;;;;4.90;99.90;;;;;;5057675;28;19969;-68
2021/10/24 05:11:36;;;;;;;;;;;5.00;99.90;;;;;;5057223;28;19916;-68
2021/10/24 05:14:02;;;;;;;;;;;4.90;99.90;;;;;;5057322;28;19963;-68
2021/10/24 05:16:28;;;;;;;;;;;4.80;99.90;;;;;;5075170;28;19916;-68
2021/10/24 05:18:53;;;;;;;;;;;4.80;99.90;;;;;;5040588;28;20643;-68
2021/10/24 05:21:19;;;;;;;;;;;4.80;99.90;;;;;;5056666;28;19948;-68
2021/10/24 05:23:44;;;;;;;;;;;4.80;99.90;;;;;;5057282;28;19916;-68
2021/10/24 05:26:10;;;;;;;;;;;4.80;99.90;;;;;;5075000;28;19924;-68
2021/10/24 05:28:35;;;;;;;;;;;4.80;99.90;;;;;;5074921;28;19990;-68
2021/10/24 05:31:01;;;;;;;;;;;4.80;99.90;;;;;;5056905;28;19916;-68
2021/10/24 05:33:26;;;;;;;;;;;4.70;99.90;;;;;;5040067;28;20310;-68
2021/10/24 05:35:53;;;;;;;;;;;4.70;99.90;;;;;;5074810;28;20281;-68
2021/10/24 05:38:20;;;;;;;;;;;4.70;99.90;;;;;;5074678;28;19944;-68
2021/10/24 05:40:46;;;;;;;;;;;4.60;99.90;;;;;;5072948;28;19963;-68
2021/10/24 05:43:11;;;;;;;;;;;4.70;99.90;;;;;;5056589;28;19920;-68
2021/10/24 05:45:37;;;;;;;;;;;4.60;99.90;;;;;;5056697;28;19923;-68
2021/10/24 05:48:03;;;;;;;;;;;4.60;99.90;;;;;;5056448;28;19920;-68
2021/10/24 05:50:28;;;;;;;;;;;4.60;99.90;;;;;;5056666;28;19920;-68
2021/10/24 05:52:54;;;;;;;;;;;4.60;99.90;;;;;;5056527;28;20393;-68
2021/10/24 05:55:19;;;;;;;;;;;4.60;99.90;;;;;;5056731;28;19924;-68
2021/10/24 05:57:45;;;;;;;;;;;4.50;99.90;;;;;;5074227;28;19947;-68
2021/10/24 06:00:11;;;;;;;;;;;4.50;99.90;;;;;;5074299;28;19920;-68
2021/10/24 06:02:36;;;;;;;;;;;4.50;99.90;;;;;;5056066;28;20289;-68
2021/10/24 06:05:02;;;;;;;;;;;4.50;99.90;;;;;;5039493;28;19920;-68
2021/10/24 06:07:28;;;;;;;;;;;4.50;99.90;;;;;;5056090;28;19922;-68
2021/10/24 06:09:56;;;;;;;;;;;4.50;99.90;;;;;;5056209;28;20297;-68
2021/10/24 06:12:55;;;;;;;;;;;4.50;99.90;;;;;;5056027;28;19927;-68
2021/10/24 06:15:15;;;;;;;;;;;4.50;99.90;;;;;;5052305;28;19916;-68
2021/10/24 06:17:41;;;;;;;;;;;4.50;99.90;;;;;;5055744;28;19947;-68
2021/10/24 06:20:07;;;;;;;;;;;4.40;99.90;;;;;;5055820;28;20289;-68
2021/10/24 06:22:33;;;;;;;;;;;4.50;99.90;;;;;;5055577;28;19924;-68
2021/10/24 06:24:59;;;;;;;;;;;4.50;99.90;;;;;;5055036;28;19922;-68
2021/10/24 06:27:24;;;;;;;;;;;4.50;99.90;;;;;;5038473;28;19920;-68
2021/10/24 06:29:50;;;;;;;;;;;4.40;99.90;;;;;;5055684;28;19951;-68
2021/10/24 06:32:15;;;;;;;;;;;4.40;99.90;;;;;;5055826;28;19970;-68
2021/10/24 06:34:40;;;;;;;;;;;4.40;99.90;;;;;;5055043;28;20034;-68
2021/10/24 06:37:06;;;;;;;;;;;4.50;99.90;;;;;;5055109;28;19924;-68
2021/10/24 06:39:31;;;;;;;;;;;4.50;99.90;;;;;;5054627;28;19924;-68
2021/10/24 06:41:57;;;;;;;;;;;4.40;99.90;;;;;;5055101;28;19920;-68
2021/10/24 06:44:23;;;;;;;;;;;4.50;99.90;;;;;;5053951;28;19971;-69
2021/10/24 06:46:48;;;;;;;;;;;4.60;99.90;;;;;;5037992;28;19916;-70
2021/10/24 06:49:14;;;;;;;;;;;4.50;99.90;;;;;;5037617;28;19916;-71
2021/10/24 06:51:39;;;;;;;;;;;4.50;99.90;;;;;;5072434;28;19978;-73
2021/10/24 06:54:05;;;;;;;;;;;4.50;99.90;;;;;;5053780;28;20383;-68
2021/10/24 06:56:30;;;;;;;;;;;4.50;99.90;;;;;;5054431;28;19916;-68
2021/10/24 06:58:56;;;;;;;;;;;4.60;99.90;;;;;;5072045;28;19924;-68
2021/10/24 07:01:21;;;;;;;;;;;4.60;99.90;;;;;;5054137;28;19926;-68
2021/10/24 07:03:47;;;;;;;;;;;4.60;99.90;;;;;;5053986;28;19924;-68
2021/10/24 07:06:12;;;;;;;;;;;4.70;99.90;;;;;;5054942;28;20014;-68
2021/10/24 07:08:38;;;;;;;;;;;4.70;99.90;;;;;;5055172;28;19916;-68
2021/10/24 07:11:03;;;;;;;;;;;4.80;99.90;;;;;;5055188;28;19916;-68
2021/10/24 07:13:28;;;;;;;;;;;4.80;99.90;;;;;;5054979;28;20559;-68
2021/10/24 07:15:54;;;;;;;;;;;4.90;99.90;;;;;;5038181;28;19923;-68
2021/10/24 07:18:19;;;;;;;;;;;4.90;99.90;;;;;;5054772;28;19963;-68
2021/10/24 07:20:45;;;;;;;;;;;4.90;99.90;;;;;;5072994;28;20312;-68
2021/10/24 07:23:10;;;;;;;;;;;5.00;99.90;;;;;;5054622;28;19920;-68
2021/10/24 07:25:36;;;;;;;;;;;5.10;99.90;;;;;;5054898;28;19920;-68
2021/10/24 07:28:01;;;;;;;;;;;5.10;99.90;;;;;;5054546;28;19916;-68
2021/10/24 07:30:27;;;;;;;;;;;5.20;99.90;;;;;;5054451;28;19963;-68
2021/10/24 07:32:52;;;;;;;;;;;5.30;99.90;;;;;;5054807;28;19977;-68
2021/10/24 07:35:18;;;;;;;;;;;5.30;99.90;;;;;;5054534;28;19924;-68
2021/10/24 07:37:43;;;;;;;;;;;5.40;99.90;;;;;;5054366;28;19995;-68
2021/10/24 07:40:10;;;;;;;;;;;5.50;99.90;;;;;;5037725;28;19928;-68
2021/10/24 07:42:37;;;;;;;;;;;5.60;99.90;;;;;;5038215;28;19927;-68
2021/10/24 07:45:03;;;;;;;;;;;5.70;99.90;;;;;;5054553;28;19916;-68
2021/10/24 07:47:30;;;;;;;;;;;5.80;99.90;;;;;;5054596;28;20372;-68
2021/10/24 07:50:00;;;;;;;;;;;5.90;99.90;;;;;;5054203;28;19916;-68
2021/10/24 07:52:25;;;;;;;;;;;6.00;99.90;;;;;;5054155;28;20442;-68
2021/10/24 07:54:51;;;;;;;;;;;6.10;99.90;;;;;;5054338;28;19916;-68
2021/10/24 07:57:16;;;;;;;;;;;6.20;99.90;;;;;;5071992;28;19917;-68
2021/10/24 07:59:42;;;;;;;;;;;6.30;99.90;;;;;;5054065;28;19920;-68
2021/10/24 08:02:09;;;;;;;;;;;6.40;99.90;;;;;;5037432;28;19916;-68
2021/10/24 08:04:35;;;;;;;;;;;6.60;99.90;;;;;;5053821;28;19928;-68
2021/10/24 08:07:05;;;;;;;;;;;6.60;99.90;;;;;;5054160;28;19920;-68
2021/10/24 08:09:31;;;;;;;;;;;6.70;99.90;;;;;;5054002;28;19966;-68
2021/10/24 08:12:00;;;;;;;;;;;6.90;99.90;;;;;;5054186;28;20239;-68
2021/10/24 08:14:26;;;;;;;;;;;7.00;99.90;;;;;;5071987;28;19977;-68
2021/10/24 08:16:51;;;;;;;;;;;7.10;99.90;;;;;;5071838;28;20362;-68
2021/10/24 08:19:17;;;;;;;;;;;7.20;99.90;;;;;;5053651;28;19925;-68
2021/10/24 08:21:43;;;;;;;;;;;7.30;99.90;;;;;;5072042;28;19916;-68
2021/10/24 08:24:08;;;;;;;;;;;7.30;99.90;;;;;;5053787;28;20049;-68
2021/10/24 08:26:34;;;;;;;;;;;7.40;99.90;;;;;;5053790;28;19966;-68
2021/10/24 08:29:00;;;;;;;;;;;7.50;99.90;;;;;;5053746;28;19920;-68
2021/10/24 08:31:27;;;;;;;;;;;7.60;99.90;;;;;;5053619;28;19920;-68
2021/10/24 08:33:53;;;;;;;;;;;7.70;99.90;;;;;;5071733;28;20259;-68
2021/10/24 08:36:19;;;;;;;;;;;7.80;99.90;;;;;;5053646;28;20007;-68
2021/10/24 08:38:44;;;;;;;;;;;7.80;99.90;;;;;;5053661;28;20009;-68
2021/10/24 08:41:11;;;;;;;;;;;7.90;99.90;;;;;;5071624;28;19924;-68
2021/10/24 08:43:38;;;;;;;;;;;8.00;99.90;;;;;;5053670;28;20002;-68
2021/10/24 08:46:05;;;;;;;;;;;8.00;99.90;;;;;;5053454;28;19917;-68
2021/10/24 08:48:33;;;;;;;;;;;8.10;99.90;;;;;;5053540;28;19924;-68
2021/10/24 08:50:59;;;;;;;;;;;8.10;99.90;;;;;;5053445;28;19931;-68
2021/10/24 08:53:26;;;;;;;;;;;8.20;99.90;;;;;;5053577;28;19916;-68
2021/10/24 08:55:52;;;;;;;;;;;8.30;99.90;;;;;;5053432;28;19955;-68
2021/10/24 08:58:18;;;;;;;;;;;8.30;99.90;;;;;;5053594;28;19940;-68
2021/10/24 09:00:44;;;;;;;;;;;8.30;99.90;;;;;;5053370;28;20270;-68
2021/10/24 09:03:10;;;;;;;;;;;8.40;99.90;;;;;;5053590;28;19921;-68
2021/10/24 09:05:49;;;;;;;;;;;8.40;99.90;;;;;;5053300;28;19920;-68
2021/10/24 09:08:24;;;;;;;;;;;8.40;99.90;;;;;;5037068;28;20441;-68
2021/10/24 09:10:54;;;;;;;;;;;8.50;99.90;;;;;;5053278;28;19931;-68
2021/10/24 09:13:21;;;;;;;;;;;8.50;99.90;;;;;;5036902;28;19920;-68
2021/10/24 09:15:54;;;;;;;;;;;8.50;99.90;;;;;;5053493;28;19928;-68
2021/10/24 09:18:21;;;;;;;;;;;8.60;99.90;;;;;;5057297;28;20354;-68
2021/10/24 09:20:47;;;;;;;;;;;8.60;99.90;;;;;;5056776;28;19928;-68
2021/10/24 09:23:14;;;;;;;;;;;8.70;99.90;;;;;;5057317;28;19920;-68
2021/10/24 09:25:46;;;;;;;;;;;8.70;99.90;;;;;;5056968;28;19931;-68
2021/10/24 09:28:13;;;;;;;;;;;8.80;99.90;;;;;;5057088;28;19917;-68
2021/10/24 09:30:39;;;;;;;;;;;8.90;99.90;;;;;;5057154;28;20289;-66
2021/10/24 09:33:08;;;;;;;;;;;8.90;99.90;;;;;;5056773;28;19922;-68
2021/10/24 09:35:36;;;;;;;;;;;8.90;99.90;;;;;;5056911;28;20018;-68
2021/10/24 09:38:03;;;;;;;;;;;9.00;99.90;;;;;;5049964;28;19917;-68
2021/10/24 09:40:30;;;;;;;;;;;9.00;99.90;;;;;;5034517;28;19925;-66
2021/10/24 09:43:16;;;;;;;;;;;9.10;99.90;;;;;;5033493;28;19917;-68
2021/10/24 09:45:42;;;;;;;;;;;9.20;99.90;;;;;;5033272;28;19916;-68
2021/10/24 09:48:19;;;;;;;;;;;9.30;99.90;;;;;;5033590;28;20282;-68
2021/10/24 09:50:52;;;;;;;;;;;9.30;99.90;;;;;;5033163;28;20008;-68
2021/10/24 09:53:23;;;;;;;;;;;9.40;99.90;;;;;;5037726;23;20380;-68
2021/10/24 09:55:54;;;;;;;;;;;9.50;99.90;;;;;;5053064;28;19963;-68
2021/10/24 09:58:21;;;;;;;;;;;9.50;99.90;;;;;;5036721;28;19917;-68
2021/10/24 10:00:47;;;;;;;;;;;9.60;99.90;;;;;;5036381;28;20023;-66
2021/10/24 10:03:17;;;;;;;;;;;9.70;99.90;;;;;;5053091;28;20422;-66
2021/10/24 10:05:43;;;;;;;;;;;9.80;99.90;;;;;;5054679;28;20007;-66
2021/10/24 10:08:09;;;;;;;;;;;10.00;99.90;;;;;;5053150;28;20047;-67
2021/10/24 10:10:57;;;;;;;;;;;10.10;99.90;;;;;;5054027;28;19978;-68
2021/10/24 10:13:24;;;;;;;;;;;10.20;99.90;;;;;;5053169;28;19917;-68
2021/10/24 10:15:50;;;;;;;;;;;10.30;99.90;;;;;;5069664;28;19920;-66
2021/10/24 10:18:16;;;;;;;;;;;10.30;99.90;;;;;;5054367;28;19924;-66
2021/10/24 10:20:52;;;;;;;;;;;10.40;99.90;;;;;;5054003;28;19928;-66
2021/10/24 10:23:20;;;;;;;;;;;10.50;99.90;;;;;;5054234;28;19917;-66
2021/10/24 10:25:46;;;;;;;;;;;10.50;99.90;;;;;;5052718;28;19924;-68
2021/10/24 10:28:13;;;;;;;;;;;10.60;99.90;;;;;;5053074;28;20562;-68
2021/10/24 10:30:43;;;;;;;;;;;10.60;99.90;;;;;;5052709;28;19921;-68
2021/10/24 10:33:27;;;;;;;;;;;10.60;99.90;;;;;;5052895;28;19917;-68
2021/10/24 10:35:53;;;;;;;;;;;10.70;99.90;;;;;;5052542;28;19917;-68
2021/10/24 10:38:29;;;;;;;;;;;10.80;99.90;;;;;;5052573;28;19924;-68
2021/10/24 10:40:57;;;;;;;;;;;10.80;99.90;;;;;;5052358;28;19920;-68
2021/10/24 10:43:23;;;;;;;;;;;10.90;99.90;;;;;;5035807;28;19916;-68
2021/10/24 10:45:53;;;;;;;;;;;10.90;99.90;;;;;;5052631;28;20484;-68
2021/10/24 10:48:22;;;;;;;;;;;11.00;99.90;;;;;;5053802;28;19921;-66
2021/10/24 10:50:48;;;;;;;;;;;11.00;99.90;;;;;;5053754;28;20012;-66
2021/10/24 10:53:18;;;;;;;;;;;11.10;99.90;;;;;;5068858;28;19927;-66
2021/10/24 10:55:56;;;;;;;;;;;11.10;99.90;;;;;;5073537;28;20006;-66
2021/10/24 10:58:38;;;;;;;;;;;11.20;99.90;;;;;;5073368;28;19924;-66
2021/10/24 11:01:04;;;;;;;;;;;11.30;99.90;;;;;;5055052;28;19920;-66
2021/10/24 11:03:50;;;;;;;;;;;11.30;99.90;;;;;;5055499;28;19916;-66
2021/10/24 11:06:28;;;;;;;;;;;11.30;99.90;;;;;;5055091;28;19916;-66
2021/10/24 11:08:53;;;;;;;;;;;11.40;99.90;;;;;;5055183;28;19916;-66
2021/10/24 11:11:55;;;;;;;;;;;11.50;99.90;;;;;;5055377;28;19949;-66
2021/10/24 11:14:32;;;;;;;;;;;11.50;99.90;;;;;;5055076;28;19962;-66
2021/10/24 11:16:59;;;;;;;;;;;11.50;99.90;;;;;;5055027;28;19916;-66
2021/10/24 11:19:28;;;;;;;;;;;11.60;99.90;;;;;;5072972;28;19925;-66
2021/10/24 11:21:55;;;;;;;;;;;11.70;99.90;;;;;;5054868;28;19962;-66
2021/10/24 11:24:36;;;;;;;;;;;11.80;99.90;;;;;;5073134;28;20023;-66
2021/10/24 11:27:03;;;;;;;;;;;11.80;99.90;;;;;;5054918;28;20408;-66
2021/10/24 11:29:29;;;;;;;;;;;11.90;99.90;;;;;;5055056;28;19920;-66
2021/10/24 11:32:13;;;;;;;;;;;12.00;99.90;;;;;;5054726;28;20070;-66
2021/10/24 11:34:39;;;;;;;;;;;12.00;99.90;;;;;;5054478;28;19920;-66
2021/10/24 11:37:04;;;;;;;;;;;12.10;99.90;;;;;;5054432;28;20304;-66
2021/10/24 11:39:29;;;;;;;;;;;12.10;99.90;;;;;;5072215;28;19975;-66
2021/10/24 11:42:06;;;;;;;;;;;12.20;99.90;;;;;;5054753;28;19920;-66
2021/10/24 11:44:31;;;;;;;;;;;12.20;99.90;;;;;;5054765;28;19928;-66
2021/10/24 11:47:07;;;;;;;;;;;12.30;99.90;;;;;;5054505;28;19963;-66
2021/10/24 11:49:45;;;;;;;;;;;12.30;99.90;;;;;;5072250;28;20022;-66
2021/10/24 11:52:20;;;;;;;;;;;12.40;99.90;;;;;;5037457;28;19932;-66
2021/10/24 11:55:03;;;;;;;;;;;12.50;99.90;;;;;;5071536;28;19916;-66
2021/10/24 11:57:48;;;;;;;;;;;12.50;99.90;;;;;;5071630;28;20308;-66
2021/10/24 12:03:02;;;;;;;;;;;12.70;99.90;;;;;;5053863;28;19921;-70
2021/10/24 12:05:32;;;;;;;;;;;12.70;99.90;;;;;;5071626;28;19917;-67
2021/10/24 12:07:57;;;;;;;;;;;12.80;99.90;;;;;;5053163;28;19920;-70
2021/10/24 12:10:36;;;;;;;;;;;12.80;99.90;;;;;;5053113;28;19943;-69
2021/10/24 12:13:22;;;;;;;;;;;12.90;99.90;;;;;;5053507;28;19923;-67
2021/10/24 12:15:47;;;;;;;;;;;12.90;99.90;;;;;;5052965;28;19951;-66
2021/10/24 12:18:13;;;;;;;;;;;13.00;99.90;;;;;;5053429;28;20360;-66
2021/10/24 12:20:39;;;;;;;;;;;12.90;99.90;;;;;;5071344;28;19924;-66
2021/10/24 12:23:13;;;;;;;;;;;13.00;99.90;;;;;;5053627;28;19999;-66
2021/10/24 12:25:48;;;;;;;;;;;13.00;99.90;;;;;;5053756;28;20358;-66
2021/10/24 12:28:36;;;;;;;;;;;13.10;99.90;;;;;;5071870;28;19916;-66
2021/10/24 12:31:03;;;;;;;;;;;13.00;99.90;;;;;;5038443;28;19920;-66
2021/10/24 12:33:30;;;;;;;;;;;13.10;99.90;;;;;;5071810;28;19938;-67
2021/10/24 12:35:58;;;;;;;;;;;13.10;99.90;;;;;;5071972;28;19927;-66
2021/10/24 12:38:40;;;;;;;;;;;13.10;99.90;;;;;;5054131;28;19939;-66
2021/10/24 12:41:06;;;;;;;;;;;13.10;99.90;;;;;;5053752;28;20333;-66
2021/10/24 12:43:31;;;;;;;;;;;13.10;99.90;;;;;;5071751;28;19970;-66
2021/10/24 12:46:01;;;;;;;;;;;13.20;99.90;;;;;;5054198;28;19916;-66
2021/10/24 12:48:43;;;;;;;;;;;13.10;99.90;;;;;;5053665;28;19916;-66
2021/10/24 12:51:29;;;;;;;;;;;13.10;99.90;;;;;;5037995;28;20561;-66
2021/10/24 12:53:55;;;;;;;;;;;13.10;99.90;;;;;;5075829;28;20353;-66
2021/10/24 12:56:21;;;;;;;;;;;13.10;99.90;;;;;;5057970;28;20484;-66
2021/10/24 12:58:47;;;;;;;;;;;13.10;99.90;;;;;;5075567;28;19973;-66
2021/10/24 13:01:19;;;;;;;;;;;13.10;99.90;;;;;;5057580;28;19970;-66
2021/10/24 13:03:45;;;;;;;;;;;13.20;99.90;;;;;;5091170;28;19916;-66
2021/10/24 13:06:10;;;;;;;;;;;13.20;99.90;;;;;;5057732;28;20027;-66
2021/10/24 13:08:36;;;;;;;;;;;13.20;99.90;;;;;;5057390;28;19916;-66
2021/10/24 13:11:02;;;;;;;;;;;13.20;99.90;;;;;;5040557;28;20452;-66
2021/10/24 13:13:27;;;;;;;;;;;13.20;99.90;;;;;;5057418;28;19959;-66
2021/10/24 13:15:53;;;;;;;;;;;13.10;99.90;;;;;;5057320;28;19920;-66
2021/10/24 13:18:18;;;;;;;;;;;13.20;99.90;;;;;;5075538;28;19927;-66
2021/10/24 13:20:45;;;;;;;;;;;13.20;99.90;;;;;;5057225;28;19940;-66
2021/10/24 13:23:11;;;;;;;;;;;13.10;99.90;;;;;;5057313;28;19920;-66
2021/10/24 13:25:36;;;;;;;;;;;13.10;99.90;;;;;;5057064;28;19988;-66
2021/10/24 13:28:02;;;;;;;;;;;13.10;99.90;;;;;;5057254;28;20324;-66
2021/10/24 13:30:33;;;;;;;;;;;13.00;99.90;;;;;;5057346;28;19923;-66
2021/10/24 13:32:58;;;;;;;;;;;12.90;99.90;;;;;;5091066;28;19920;-66
2021/10/24 13:35:24;;;;;;;;;;;12.80;99.90;;;;;;5057076;28;19939;-66
2021/10/24 13:37:51;;;;;;;;;;;12.70;99.90;;;;;;5090462;28;19984;-66
2021/10/24 13:40:17;;;;;;;;;;;12.70;99.90;;;;;;5074637;28;19921;-66
2021/10/24 13:42:42;;;;;;;;;;;12.70;99.90;;;;;;5075189;28;19920;-67
2021/10/24 13:45:08;;;;;;;;;;;12.60;99.90;;;;;;5056665;28;20285;-66
2021/10/24 13:47:34;;;;;;;;;;;12.60;99.90;;;;;;5075109;28;19955;-66
2021/10/24 13:49:59;;;;;;;;;;;12.60;99.90;;;;;;5074936;28;19955;-66
2021/10/24 13:52:26;;;;;;;;;;;12.50;99.90;;;;;;5090052;28;19931;-66
2021/10/24 13:54:52;;;;;;;;;;;12.50;99.90;;;;;;5056613;28;19927;-66
2021/10/24 13:57:17;;;;;;;;;;;12.40;99.90;;;;;;5056795;28;19916;-66
2021/10/24 13:59:43;;;;;;;;;;;12.50;99.90;;;;;;5074772;28;19921;-66
2021/10/24 14:02:08;;;;;;;;;;;12.50;99.90;;;;;;5074372;28;19934;-66
2021/10/24 14:04:34;;;;;;;;;;;12.50;99.90;;;;;;5056459;28;19985;-68
2021/10/24 14:07:00;;;;;;;;;;;12.50;99.90;;;;;;5056661;28;20389;-66
2021/10/24 14:09:25;;;;;;;;;;;12.40;99.90;;;;;;5074414;28;19946;-66
2021/10/24 14:11:51;;;;;;;;;;;12.40;99.90;;;;;;5056252;28;19927;-66
2021/10/24 14:14:16;;;;;;;;;;;12.40;99.90;;;;;;5074285;28;19923;-66
2021/10/24 14:16:42;;;;;;;;;;;12.30;99.90;;;;;;5056257;28;20003;-66
2021/10/24 14:19:07;;;;;;;;;;;12.30;99.90;;;;;;5073911;28;20026;-66
2021/10/24 14:21:33;;;;;;;;;;;12.30;99.90;;;;;;5055817;28;19926;-66
2021/10/24 14:23:58;;;;;;;;;;;12.30;99.90;;;;;;5055921;28;20416;-66
2021/10/24 14:26:24;;;;;;;;;;;12.20;99.90;;;;;;5055916;28;19917;-66
2021/10/24 14:28:52;;;;;;;;;;;12.20;99.90;;;;;;5039400;28;20374;-66